Time;durP1;ratioP1;P1;durP2;ratioP2;P2;SDS_P1;SDS_P2;PMS_P1;PMS_P2;Temp;Humidity;BMP_temperature;BMP_pressure;BME280_temperature;BME280_humidity;BME280_pressure;Samples;Min_cycle;Max_cycle;Signal;HPM_P1;HPM_P2
2023/01/30 00:02:11;;;;;;;30.30;16.30;;;5.70;99.90;;;;;;5088815;28;20038;-92
2023/01/30 00:04:37;;;;;;;27.48;15.82;;;5.70;99.90;;;;;;5073101;28;20068;-92
2023/01/30 00:07:03;;;;;;;28.95;16.17;;;5.70;99.90;;;;;;5070939;28;20040;-92
2023/01/30 00:09:28;;;;;;;32.85;18.33;;;5.70;99.90;;;;;;5089456;28;20036;-92
2023/01/30 00:11:54;;;;;;;30.55;16.08;;;5.70;99.90;;;;;;5071201;28;20489;-91
2023/01/30 00:14:19;;;;;;;33.55;17.67;;;5.80;99.90;;;;;;5056762;28;20040;-92
2023/01/30 00:16:45;;;;;;;31.75;15.75;;;5.80;99.90;;;;;;5069464;28;20048;-92
2023/01/30 00:19:10;;;;;;;31.17;16.48;;;5.80;99.90;;;;;;5079072;28;20067;-92
2023/01/30 00:21:36;;;;;;;28.88;16.67;;;5.80;99.90;;;;;;5089944;28;20496;-92
2023/01/30 00:24:02;;;;;;;29.67;16.30;;;5.90;99.90;;;;;;5071828;28;20064;-92
2023/01/30 00:26:28;;;;;;;30.25;16.38;;;5.90;99.90;;;;;;5085027;28;20047;-91
2023/01/30 00:28:53;;;;;;;28.48;15.82;;;5.90;99.90;;;;;;5089856;28;20032;-92
2023/01/30 00:31:19;;;;;;;28.40;16.00;;;5.90;99.90;;;;;;5069234;28;20040;-91
2023/01/30 00:33:45;;;;;;;31.33;15.95;;;6.00;99.90;;;;;;5073187;28;20040;-91
2023/01/30 00:36:10;;;;;;;32.08;17.83;;;6.00;99.90;;;;;;5090124;28;20061;-92
2023/01/30 00:38:36;;;;;;;29.00;16.80;;;6.00;99.90;;;;;;5057940;28;20041;-91
2023/01/30 00:41:02;;;;;;;33.38;15.75;;;6.00;99.90;;;;;;5052580;28;20032;-92
2023/01/30 00:49:07;;;;;;;27.08;14.82;;;6.20;99.90;;;;;;5054313;28;20048;-92
2023/01/30 00:51:32;;;;;;;31.10;15.50;;;6.20;99.90;;;;;;5067138;28;20040;-92
2023/01/30 00:53:58;;;;;;;21.48;12.85;;;6.30;99.90;;;;;;5073493;28;20047;-91
2023/01/30 00:56:23;;;;;;;21.48;12.27;;;6.30;99.90;;;;;;5069723;28;20040;-91
2023/01/30 00:58:49;;;;;;;25.50;14.30;;;6.40;99.90;;;;;;5053868;28;20040;-92
2023/01/30 01:01:15;;;;;;;30.92;16.70;;;6.40;99.90;;;;;;5073513;28;20048;-91
2023/01/30 01:03:40;;;;;;;26.13;12.63;;;6.40;99.90;;;;;;5061366;28;20482;-92
2023/01/30 01:06:06;;;;;;;24.00;14.10;;;6.50;99.90;;;;;;5076770;28;20097;-92
2023/01/30 01:08:32;;;;;;;27.10;16.05;;;6.50;99.90;;;;;;5092199;28;20135;-92
2023/01/30 01:10:57;;;;;;;24.83;14.82;;;6.50;99.90;;;;;;5077083;28;20544;-92
2023/01/30 01:13:23;;;;;;;27.10;13.88;;;6.60;99.90;;;;;;5093393;28;20141;-92
2023/01/30 01:15:49;;;;;;;24.10;12.55;;;6.60;99.90;;;;;;5088762;28;20047;-92
2023/01/30 01:18:14;;;;;;;24.40;13.55;;;6.70;99.90;;;;;;5093107;28;20094;-92
2023/01/30 01:20:40;;;;;;;25.13;13.25;;;6.70;99.90;;;;;;5066673;28;20036;-92
2023/01/30 01:23:08;;;;;;;25.25;14.65;;;6.70;99.90;;;;;;5076605;28;20408;-93
2023/01/30 01:25:39;;;;;;;23.50;12.13;;;6.80;99.90;;;;;;5093324;28;20040;-92
2023/01/30 01:28:07;;;;;;;23.40;12.88;;;6.80;99.90;;;;;;5073646;28;20447;-92
2023/01/30 01:30:33;;;;;;;28.73;10.95;;;6.80;99.90;;;;;;5076296;28;20511;-93
2023/01/30 01:32:59;;;;;;;22.65;9.88;;;6.80;99.90;;;;;;5068922;28;20036;-92
2023/01/30 01:35:24;;;;;;;17.13;9.48;;;6.80;99.90;;;;;;5076528;28;20119;-92
2023/01/30 01:37:54;;;;;;;15.50;7.60;;;6.90;99.90;;;;;;5067508;28;20093;-92
2023/01/30 01:43:23;;;;;;;17.50;9.18;;;7.00;99.90;;;;;;5088832;28;20040;-92
2023/01/30 01:45:53;;;;;;;21.55;9.45;;;7.00;99.90;;;;;;5093166;28;20036;-93
2023/01/30 01:48:29;;;;;;;15.70;9.43;;;7.00;99.90;;;;;;5068213;28;20115;-92
2023/01/30 01:51:01;;;;;;;15.85;8.95;;;7.00;99.90;;;;;;5076121;28;20032;-93
2023/01/30 01:53:33;;;;;;;20.48;9.25;;;7.00;99.90;;;;;;5075043;28;20131;-91
2023/01/30 01:56:01;;;;;;;17.08;7.65;;;7.00;99.90;;;;;;5076345;28;20042;-91
2023/01/30 01:58:37;;;;;;;16.30;9.02;;;7.00;99.90;;;;;;5074824;28;20392;-91
2023/01/30 02:01:03;;;;;;;17.95;8.45;;;7.00;99.90;;;;;;5088508;28;20074;-92
2023/01/30 02:03:34;;;;;;;16.85;9.73;;;7.00;99.90;;;;;;5074901;28;20071;-92
2023/01/30 02:06:02;;;;;;;16.23;8.98;;;7.00;99.90;;;;;;5074321;28;20464;-92
2023/01/30 02:08:38;;;;;;;13.82;7.18;;;7.00;99.90;;;;;;5074587;28;20036;-91
2023/01/30 02:11:10;;;;;;;11.40;5.85;;;7.00;99.90;;;;;;5074602;28;20079;-88
2023/01/30 02:13:36;;;;;;;12.93;6.22;;;7.10;99.90;;;;;;5081755;28;20047;-93
2023/01/30 02:16:04;;;;;;;14.70;7.38;;;7.10;99.90;;;;;;5072256;28;20154;-92
2023/01/30 02:18:31;;;;;;;10.38;4.68;;;7.10;99.90;;;;;;5061046;28;20036;-92
2023/01/30 02:21:22;;;;;;;16.40;6.93;;;7.10;99.90;;;;;;5071331;28;20039;-92
2023/01/30 02:23:47;;;;;;;11.45;5.60;;;7.10;99.90;;;;;;5075085;28;20516;-92
2023/01/30 02:26:31;;;;;;;14.38;5.53;;;7.10;99.90;;;;;;5072950;28;20082;-93
2023/01/30 02:29:18;;;;;;;11.23;4.70;;;7.10;99.90;;;;;;5074711;28;20040;-92
2023/01/30 02:32:03;;;;;;;10.18;5.15;;;7.10;99.90;;;;;;5067609;28;20040;-92
2023/01/30 02:35:02;;;;;;;9.40;4.22;;;7.20;99.90;;;;;;5092347;28;20042;-92
2023/01/30 02:38:02;;;;;;;8.52;4.25;;;7.20;99.90;;;;;;5089690;28;20052;-91
2023/01/30 02:40:39;;;;;;;9.85;4.07;;;7.30;99.90;;;;;;5074605;28;20036;-92
2023/01/30 02:43:13;;;;;;;10.73;4.38;;;7.20;99.90;;;;;;5086841;28;20103;-92
2023/01/30 02:45:49;;;;;;;8.65;3.67;;;7.30;99.90;;;;;;5075322;28;20131;-92
2023/01/30 02:48:32;;;;;;;7.40;2.90;;;7.30;99.90;;;;;;5073232;28;20043;-92
2023/01/30 02:51:08;;;;;;;6.68;2.70;;;7.30;99.90;;;;;;5075126;28;20504;-92
2023/01/30 02:53:35;;;;;;;6.50;2.08;;;7.30;99.90;;;;;;5084041;28;20048;-92
2023/01/30 02:56:01;;;;;;;7.57;2.83;;;7.30;99.90;;;;;;5071989;28;20505;-92
2023/01/30 02:58:34;;;;;;;5.97;2.25;;;7.30;99.90;;;;;;5054230;28;20516;-91
2023/01/30 03:01:08;;;;;;;6.50;2.80;;;7.30;99.90;;;;;;5058341;28;20115;-92
2023/01/30 03:04:26;;;;;;;7.07;2.20;;;7.30;99.90;;;;;;5074606;28;20550;-91
2023/01/30 03:07:01;;;;;;;9.07;2.63;;;7.30;99.90;;;;;;5052103;28;20497;-90
2023/01/30 03:09:43;;;;;;;8.32;2.40;;;7.30;99.90;;;;;;5074701;28;20074;-91
2023/01/30 03:12:29;;;;;;;8.95;2.80;;;7.30;99.90;;;;;;5071767;28;20036;-90
2023/01/30 03:15:18;;;;;;;7.88;3.40;;;7.30;99.90;;;;;;5074386;28;20051;-91
2023/01/30 03:17:46;;;;;;;5.95;2.45;;;7.30;99.90;;;;;;5082031;28;20040;-90
2023/01/30 03:20:14;;;;;;;8.70;2.17;;;7.30;99.90;;;;;;5074068;28;20075;-90
2023/01/30 03:22:40;;;;;;;6.80;2.03;;;7.30;99.90;;;;;;5089671;28;20783;-90
2023/01/30 03:25:07;;;;;;;8.57;2.40;;;7.40;99.90;;;;;;5089507;28;20455;-90
2023/01/30 03:27:33;;;;;;;6.60;2.22;;;7.30;99.90;;;;;;5091093;28;20044;-89
2023/01/30 03:29:59;;;;;;;7.90;2.20;;;7.30;99.90;;;;;;5072811;28;20032;-91
2023/01/30 03:32:25;;;;;;;10.32;2.70;;;7.40;99.90;;;;;;5074329;28;20032;-91
2023/01/30 03:34:50;;;;;;;7.18;2.78;;;7.40;99.90;;;;;;5073625;28;20386;-91
2023/01/30 03:37:16;;;;;;;8.38;2.30;;;7.40;99.90;;;;;;5067564;28;20043;-90
2023/01/30 03:39:42;;;;;;;11.02;2.38;;;7.40;99.90;;;;;;5090756;28;20075;-90
2023/01/30 03:42:09;;;;;;;11.82;2.92;;;7.40;99.90;;;;;;5082967;28;20033;-90
2023/01/30 03:44:34;;;;;;;8.95;2.13;;;7.40;99.90;;;;;;5073946;28;20045;-91
2023/01/30 03:47:00;;;;;;;10.13;3.15;;;7.40;99.90;;;;;;5090509;28;20044;-90
2023/01/30 03:49:26;;;;;;;9.95;3.03;;;7.40;99.90;;;;;;5066425;28;20129;-90
2023/01/30 03:51:52;;;;;;;8.25;2.40;;;7.40;99.90;;;;;;5074299;28;20546;-90
2023/01/30 03:54:17;;;;;;;7.07;2.10;;;7.40;99.90;;;;;;5074387;28;20040;-90
2023/01/30 03:56:43;;;;;;;11.98;3.13;;;7.40;99.90;;;;;;5084920;28;20040;-90
2023/01/30 03:59:09;;;;;;;9.63;2.45;;;7.50;99.90;;;;;;5090286;28;20036;-90
2023/01/30 04:01:34;;;;;;;11.35;2.88;;;7.50;99.90;;;;;;5090041;28;20044;-90
2023/01/30 04:04:00;;;;;;;5.05;1.60;;;7.50;99.90;;;;;;5068070;28;20440;-90
2023/01/30 04:06:26;;;;;;;12.35;2.50;;;7.50;99.90;;;;;;5073799;28;20040;-90
2023/01/30 04:08:52;;;;;;;9.98;2.00;;;7.50;99.90;;;;;;5086027;28;20043;-90
2023/01/30 04:11:18;;;;;;;9.55;2.38;;;7.50;99.90;;;;;;5073675;28;20044;-90
2023/01/30 04:13:44;;;;;;;10.63;2.88;;;7.50;99.90;;;;;;5090086;28;20119;-90
2023/01/30 04:16:22;;;;;;;16.52;4.60;;;7.50;99.90;;;;;;5088760;28;20047;-90
2023/01/30 04:18:47;;;;;;;13.15;3.13;;;7.50;99.90;;;;;;5052780;28;20044;-91
2023/01/30 04:21:14;;;;;;;15.77;3.42;;;7.50;99.90;;;;;;5055482;28;20049;-91
2023/01/30 04:23:40;;;;;;;10.70;2.60;;;7.50;99.90;;;;;;5073058;28;20040;-91
2023/01/30 04:26:06;;;;;;;11.65;3.15;;;7.50;99.90;;;;;;5073767;28;20793;-90
2023/01/30 04:28:32;;;;;;;9.98;2.85;;;7.60;99.90;;;;;;5087354;28;20036;-91
2023/01/30 04:30:58;;;;;;;11.43;2.75;;;7.60;99.90;;;;;;5090439;28;20431;-90
2023/01/30 04:33:24;;;;;;;11.60;2.75;;;7.60;99.90;;;;;;5073172;28;20119;-90
2023/01/30 04:35:58;;;;;;;10.07;3.28;;;7.50;99.90;;;;;;5075537;28;20128;-90
2023/01/30 04:38:25;;;;;;;16.23;3.15;;;7.60;99.90;;;;;;5076616;28;20127;-91
2023/01/30 04:40:52;;;;;;;13.43;3.30;;;7.60;99.90;;;;;;5090237;28;20044;-90
2023/01/30 04:43:20;;;;;;;18.60;3.45;;;7.60;99.90;;;;;;5076941;28;20067;-90
2023/01/30 04:45:47;;;;;;;9.57;2.33;;;7.50;99.90;;;;;;5087029;28;20464;-90
2023/01/30 04:48:14;;;;;;;9.65;2.90;;;7.50;99.90;;;;;;5077075;28;20063;-90
2023/01/30 04:50:41;;;;;;;16.90;4.00;;;7.50;99.90;;;;;;5072857;28;20041;-91
2023/01/30 04:53:06;;;;;;;11.98;2.95;;;7.50;99.90;;;;;;5093722;28;20126;-91
2023/01/30 04:55:33;;;;;;;10.57;3.22;;;7.50;99.90;;;;;;5094048;28;20123;-89
2023/01/30 04:57:59;;;;;;;14.88;3.05;;;7.50;99.90;;;;;;5090943;28;20036;-91
2023/01/30 05:00:26;;;;;;;16.23;2.80;;;7.40;99.90;;;;;;5076608;28;20040;-90
2023/01/30 05:02:51;;;;;;;17.42;3.17;;;7.40;99.90;;;;;;5071431;28;20101;-90
2023/01/30 05:05:17;;;;;;;11.45;2.22;;;7.40;99.90;;;;;;5076700;28;20119;-91
2023/01/30 05:07:43;;;;;;;13.70;2.92;;;7.30;99.90;;;;;;5089563;28;20078;-90
2023/01/30 05:10:09;;;;;;;15.02;3.53;;;7.30;99.90;;;;;;5073338;28;20044;-91
2023/01/30 05:12:35;;;;;;;12.73;2.28;;;7.30;99.90;;;;;;5076528;28;20068;-90
2023/01/30 05:15:01;;;;;;;12.43;2.90;;;7.20;99.90;;;;;;5092571;28;20067;-91
2023/01/30 05:17:27;;;;;;;12.68;3.10;;;7.20;99.90;;;;;;5093211;28;20078;-90
2023/01/30 05:19:52;;;;;;;10.75;2.60;;;7.20;99.90;;;;;;5088373;28;20048;-91
2023/01/30 05:22:18;;;;;;;12.05;2.38;;;7.20;99.90;;;;;;5074920;28;20047;-90
2023/01/30 05:24:43;;;;;;;10.23;2.65;;;7.20;99.90;;;;;;5072457;28;20478;-91
2023/01/30 05:27:09;;;;;;;20.17;3.83;;;7.20;99.90;;;;;;5072989;28;20096;-91
2023/01/30 05:29:35;;;;;;;14.00;3.08;;;7.20;99.90;;;;;;5093357;28;20032;-90
2023/01/30 05:32:02;;;;;;;12.05;2.25;;;7.20;99.90;;;;;;5087781;28;20032;-90
2023/01/30 05:34:27;;;;;;;13.85;2.33;;;7.20;99.90;;;;;;5076570;28;20085;-90
2023/01/30 05:36:53;;;;;;;15.02;3.45;;;7.20;99.90;;;;;;5073351;28;20123;-90
2023/01/30 05:39:19;;;;;;;11.70;2.33;;;7.10;99.90;;;;;;5075722;28;20485;-90
2023/01/30 05:41:44;;;;;;;15.73;2.63;;;7.10;99.90;;;;;;5092811;28;20493;-91
2023/01/30 05:44:10;;;;;;;12.18;2.45;;;7.10;99.90;;;;;;5071774;28;20036;-91
2023/01/30 05:46:36;;;;;;;12.93;2.15;;;7.10;99.90;;;;;;5076647;28;20046;-91
2023/01/30 05:49:03;;;;;;;15.55;2.95;;;7.00;99.90;;;;;;5087707;28;20029;-91
2023/01/30 05:51:29;;;;;;;12.70;2.67;;;7.00;99.90;;;;;;5075193;28;20115;-91
2023/01/30 05:53:55;;;;;;;18.88;3.03;;;6.90;99.90;;;;;;5093209;28;20131;-91
2023/01/30 05:56:24;;;;;;;11.68;2.40;;;6.90;99.90;;;;;;5087050;28;20527;-91
2023/01/30 05:58:54;;;;;;;18.13;2.92;;;6.80;99.90;;;;;;5092087;28;20032;-90
2023/01/30 06:01:20;;;;;;;17.08;4.03;;;6.80;99.90;;;;;;5067173;28;20046;-90
2023/01/30 06:03:46;;;;;;;16.35;3.13;;;6.70;99.90;;;;;;5075434;28;20040;-91
2023/01/30 06:06:12;;;;;;;14.25;2.88;;;6.70;99.90;;;;;;5071092;28;20416;-90
2023/01/30 06:08:38;;;;;;;13.88;2.63;;;6.70;99.90;;;;;;5075438;28;20039;-90
2023/01/30 06:11:09;;;;;;;13.30;2.80;;;6.60;99.90;;;;;;5087786;28;20068;-90
2023/01/30 06:13:35;;;;;;;13.50;2.40;;;6.60;99.90;;;;;;5072836;28;20040;-91
2023/01/30 06:16:01;;;;;;;17.17;3.25;;;6.60;99.90;;;;;;5092595;28;20040;-91
2023/01/30 06:18:27;;;;;;;19.83;3.45;;;6.60;99.90;;;;;;5066825;28;20043;-91
2023/01/30 06:20:53;;;;;;;13.85;2.97;;;6.50;99.90;;;;;;5075521;28;20515;-90
2023/01/30 06:23:20;;;;;;;16.58;2.58;;;6.50;99.90;;;;;;5087074;28;20149;-90
2023/01/30 06:25:47;;;;;;;17.60;3.45;;;6.50;99.90;;;;;;5075455;28;20048;-91
2023/01/30 06:28:14;;;;;;;10.82;1.95;;;6.40;99.90;;;;;;5074927;28;20477;-90
2023/01/30 06:30:40;;;;;;;14.38;2.92;;;6.40;99.90;;;;;;5074371;28;20040;-90
2023/01/30 06:33:06;;;;;;;18.48;3.42;;;6.30;99.90;;;;;;5075373;28;20039;-91
2023/01/30 06:35:32;;;;;;;16.38;3.15;;;6.30;99.90;;;;;;5073195;28;20071;-90
2023/01/30 06:37:58;;;;;;;13.75;2.28;;;6.30;99.90;;;;;;5054572;28;20563;-88
2023/01/30 06:40:23;;;;;;;18.58;2.67;;;6.30;99.90;;;;;;5071207;28;20480;-90
2023/01/30 06:42:49;;;;;;;12.85;2.22;;;6.30;99.90;;;;;;5068769;28;20044;-90
2023/01/30 06:45:17;;;;;;;9.98;2.33;;;6.30;99.90;;;;;;5072785;28;20068;-90
2023/01/30 06:47:47;;;;;;;10.23;2.33;;;6.30;99.90;;;;;;5078084;28;20043;-90
2023/01/30 06:50:15;;;;;;;12.38;2.20;;;6.40;99.90;;;;;;5091731;28;20035;-91
2023/01/30 06:52:42;;;;;;;8.27;2.10;;;6.40;99.90;;;;;;5074407;28;20296;-90
2023/01/30 06:55:09;;;;;;;22.40;3.33;;;6.50;99.90;;;;;;5072706;28;20127;-89
2023/01/30 06:57:35;;;;;;;14.70;2.20;;;6.40;99.90;;;;;;5073521;28;20075;-90
2023/01/30 07:00:03;;;;;;;17.58;2.58;;;6.50;99.90;;;;;;5067155;28;20094;-90
2023/01/30 07:02:33;;;;;;;22.85;3.15;;;6.50;99.90;;;;;;5074142;28;20048;-90
2023/01/30 07:04:59;;;;;;;17.48;3.97;;;6.50;99.90;;;;;;5072421;28;20032;-90
2023/01/30 07:07:24;;;;;;;13.95;2.05;;;6.50;99.90;;;;;;5034214;28;20048;-90
2023/01/30 07:09:50;;;;;;;13.10;2.22;;;6.50;99.90;;;;;;5091655;28;20656;-90
2023/01/30 07:12:15;;;;;;;15.98;2.75;;;6.50;99.90;;;;;;5072367;28;20070;-90
2023/01/30 07:14:41;;;;;;;14.48;2.38;;;6.40;99.90;;;;;;5091107;28;20123;-89
2023/01/30 07:17:07;;;;;;;9.35;2.47;;;6.40;99.90;;;;;;5087135;28;20048;-90
2023/01/30 07:19:32;;;;;;;16.25;2.50;;;6.40;99.90;;;;;;5073813;28;20047;-89
2023/01/30 07:21:58;;;;;;;15.20;2.28;;;6.40;99.90;;;;;;5083555;28;20043;-89
2023/01/30 07:24:23;;;;;;;16.13;2.78;;;6.40;99.90;;;;;;5090149;28;20044;-89
2023/01/30 07:26:49;;;;;;;12.45;2.35;;;6.50;99.90;;;;;;5073717;28;20117;-89
2023/01/30 07:29:15;;;;;;;10.90;1.77;;;6.50;99.90;;;;;;5069285;28;20086;-89
2023/01/30 07:31:40;;;;;;;17.27;2.40;;;6.40;99.90;;;;;;5071128;28;20398;-89
2023/01/30 07:34:06;;;;;;;11.68;2.05;;;6.50;99.90;;;;;;5078476;28;20036;-89
2023/01/30 07:36:33;;;;;;;11.82;2.53;;;6.50;99.90;;;;;;5089152;28;20036;-89
2023/01/30 07:39:00;;;;;;;11.10;2.20;;;6.50;99.90;;;;;;5077889;28;20553;-89
2023/01/30 07:41:26;;;;;;;9.55;1.98;;;6.50;99.90;;;;;;5087096;28;20490;-89
2023/01/30 07:43:52;;;;;;;19.70;2.70;;;6.50;99.90;;;;;;5074082;28;20064;-90
2023/01/30 07:46:18;;;;;;;19.13;3.47;;;6.60;99.90;;;;;;5069987;28;20082;-89
2023/01/30 07:48:44;;;;;;;7.68;1.35;;;6.50;99.90;;;;;;5090378;28;20128;-89
2023/01/30 07:51:10;;;;;;;9.75;2.05;;;6.50;99.90;;;;;;5087079;28;20509;-89
2023/01/30 07:53:35;;;;;;;13.82;2.08;;;6.40;99.90;;;;;;5090194;28;20146;-89
2023/01/30 07:56:13;;;;;;;19.23;2.15;;;6.40;99.90;;;;;;5064450;28;20115;-89
2023/01/30 07:58:39;;;;;;;19.30;2.97;;;6.40;99.90;;;;;;5083028;28;20051;-89
2023/01/30 08:01:05;;;;;;;13.80;2.67;;;6.40;99.90;;;;;;5069641;28;20397;-89
2023/01/30 08:03:30;;;;;;;12.10;1.75;;;6.40;99.90;;;;;;5067644;28;20036;-89
2023/01/30 08:05:56;;;;;;;11.73;2.20;;;6.50;99.90;;;;;;5073119;28;20051;-90
2023/01/30 08:08:22;;;;;;;13.43;2.70;;;6.50;99.90;;;;;;5091466;28;20510;-89
2023/01/30 08:10:48;;;;;;;19.92;3.67;;;6.60;99.90;;;;;;5096050;28;20096;-90
2023/01/30 08:13:14;;;;;;;14.60;2.25;;;6.60;99.90;;;;;;5072771;28;20545;-89
2023/01/30 08:15:39;;;;;;;14.05;2.75;;;6.60;99.90;;;;;;5096340;28;20044;-90
2023/01/30 08:18:08;;;;;;;22.55;3.65;;;6.60;99.90;;;;;;5095761;28;20105;-87
2023/01/30 08:20:34;;;;;;;8.07;2.00;;;6.60;99.90;;;;;;5087347;28;20081;-86
2023/01/30 08:23:03;;;;;;;18.10;3.35;;;6.60;99.90;;;;;;5097781;28;20140;-89
2023/01/30 08:25:29;;;;;;;9.55;1.55;;;6.60;99.90;;;;;;5086033;28;20161;-89
2023/01/30 08:27:54;;;;;;;20.02;2.85;;;6.70;99.90;;;;;;5076738;28;20071;-90
2023/01/30 08:30:21;;;;;;;13.52;2.15;;;6.60;99.90;;;;;;5067954;28;20501;-90
2023/01/30 08:32:47;;;;;;;14.68;2.63;;;6.70;99.90;;;;;;5072336;28;20045;-90
2023/01/30 08:35:13;;;;;;;19.48;3.42;;;6.70;99.90;;;;;;5077082;28;20654;-89
2023/01/30 08:37:39;;;;;;;14.57;2.33;;;6.70;99.90;;;;;;5075029;28;20044;-89
2023/01/30 08:40:06;;;;;;;12.98;3.38;;;6.70;99.90;;;;;;5057183;28;20043;-90
2023/01/30 08:42:32;;;;;;;15.32;3.05;;;6.70;99.90;;;;;;5060237;28;20067;-89
2023/01/30 08:44:58;;;;;;;15.50;2.53;;;6.70;99.90;;;;;;5074654;28;20072;-90
2023/01/30 08:47:24;;;;;;;14.07;3.17;;;6.70;99.90;;;;;;5057667;28;20047;-89
2023/01/30 08:49:52;;;;;;;15.55;2.78;;;6.70;99.90;;;;;;5056888;28;20119;-89
2023/01/30 08:52:19;;;;;;;13.25;2.78;;;6.80;99.90;;;;;;5073830;28;20090;-89
2023/01/30 08:54:45;;;;;;;12.45;2.53;;;6.80;99.90;;;;;;5089369;28;20054;-91
2023/01/30 08:57:13;;;;;;;15.73;2.25;;;6.80;99.90;;;;;;5079072;28;20048;-90
2023/01/30 08:59:39;;;;;;;9.18;2.42;;;6.80;99.90;;;;;;5089924;28;20040;-89
2023/01/30 09:02:07;;;;;;;28.73;3.92;;;6.80;99.90;;;;;;5078997;28;20075;-90
2023/01/30 09:04:33;;;;;;;15.63;3.33;;;6.80;99.90;;;;;;5093720;28;20125;-90
2023/01/30 09:06:59;;;;;;;11.88;2.15;;;6.80;99.90;;;;;;5076582;28;20120;-90
2023/01/30 09:09:24;;;;;;;15.02;2.42;;;6.80;99.90;;;;;;5078826;28;20212;-90
2023/01/30 09:11:50;;;;;;;12.45;2.45;;;6.90;99.90;;;;;;5073265;28;20036;-90
2023/01/30 09:14:18;;;;;;;20.63;2.80;;;6.90;99.90;;;;;;5079233;28;20043;-90
2023/01/30 09:16:45;;;;;;;10.77;2.38;;;6.90;99.90;;;;;;5075675;28;20438;-89
2023/01/30 09:19:11;;;;;;;7.93;1.75;;;6.90;99.90;;;;;;5074019;28;20123;-90
2023/01/30 09:21:37;;;;;;;10.50;2.88;;;6.90;99.90;;;;;;5075274;28;20100;-90
2023/01/30 09:24:04;;;;;;;17.42;3.00;;;7.00;99.90;;;;;;5074989;28;20028;-90
2023/01/30 09:26:30;;;;;;;11.15;2.08;;;7.00;99.90;;;;;;5076329;28;20572;-91
2023/01/30 09:28:55;;;;;;;12.68;2.47;;;7.00;99.90;;;;;;5065929;28;20221;-90
2023/01/30 09:31:21;;;;;;;13.88;2.80;;;7.10;99.90;;;;;;5075134;28;20488;-90
2023/01/30 09:33:47;;;;;;;8.07;1.83;;;7.10;99.90;;;;;;5072422;28;20124;-90
2023/01/30 09:36:12;;;;;;;20.60;3.60;;;7.20;99.90;;;;;;5106627;28;20051;-89
2023/01/30 09:38:38;;;;;;;10.75;1.88;;;7.20;99.90;;;;;;5072658;28;20500;-90
2023/01/30 09:41:19;;;;;;;18.25;3.03;;;7.20;99.90;;;;;;5068107;28;20047;-90
2023/01/30 09:43:45;;;;;;;12.50;2.83;;;7.30;99.90;;;;;;5054588;28;20047;-91
2023/01/30 09:46:33;;;;;;;15.50;2.63;;;7.30;99.90;;;;;;5072356;28;20048;-89
2023/01/30 09:49:16;;;;;;;10.00;1.90;;;7.30;99.90;;;;;;5077597;28;20647;-90
2023/01/30 09:52:03;;;;;;;11.95;2.38;;;7.30;99.90;;;;;;5060143;28;20245;-90
2023/01/30 09:54:33;;;;;;;14.60;2.28;;;7.30;99.90;;;;;;5050666;28;20045;-89
2023/01/30 09:57:24;;;;;;;16.20;3.05;;;7.40;99.90;;;;;;5039257;28;20037;-90
2023/01/30 10:00:22;;;;;;;14.38;2.45;;;7.50;99.90;;;;;;5088943;28;20044;-90
2023/01/30 10:03:02;;;;;;;18.55;3.53;;;7.60;99.90;;;;;;5074145;28;20076;-86
2023/01/30 10:05:43;;;;;;;12.88;2.47;;;7.70;99.90;;;;;;5083149;28;20048;-90
2023/01/30 10:08:42;;;;;;;11.48;2.20;;;7.70;99.90;;;;;;5075422;28;20093;-90
2023/01/30 10:11:22;;;;;;;11.45;2.90;;;7.60;99.90;;;;;;5042915;28;20047;-90
2023/01/30 10:13:54;;;;;;;17.88;3.67;;;7.60;99.90;;;;;;5034003;28;20052;-87
2023/01/30 10:16:44;;;;;;;10.15;2.75;;;7.50;99.90;;;;;;5074973;28;20072;-91
2023/01/30 10:19:43;;;;;;;13.77;2.53;;;7.60;99.90;;;;;;5034655;28;20033;-90
2023/01/30 10:22:43;;;;;;;13.38;1.90;;;7.60;99.90;;;;;;5071527;28;20037;-90
2023/01/30 10:25:24;;;;;;;18.42;3.38;;;7.60;99.90;;;;;;5051491;28;20464;-90
2023/01/30 10:28:30;;;;;;;18.05;3.67;;;7.70;99.90;;;;;;5094740;28;20044;-89
2023/01/30 10:31:04;;;;;;;15.57;2.42;;;7.80;99.90;;;;;;5012643;28;20041;-89
2023/01/30 10:33:35;;;;;;;13.52;2.45;;;7.80;99.90;;;;;;5009098;28;20526;-90
2023/01/30 10:36:11;;;;;;;16.73;2.67;;;7.90;99.90;;;;;;5011916;28;20129;-90
2023/01/30 10:38:46;;;;;;;13.10;2.45;;;8.00;99.90;;;;;;5026542;28;20077;-89
2023/01/30 10:41:41;;;;;;;15.10;2.30;;;8.10;99.90;;;;;;5009738;28;20054;-90
2023/01/30 10:44:10;;;;;;;16.98;2.70;;;8.10;99.90;;;;;;5011850;28;20041;-90
2023/01/30 10:46:58;;;;;;;20.58;2.95;;;8.10;99.90;;;;;;5011810;28;20048;-90
2023/01/30 10:49:31;;;;;;;16.30;2.75;;;8.00;99.90;;;;;;5011679;28;20053;-89
2023/01/30 10:52:23;;;;;;;21.20;3.58;;;8.00;99.90;;;;;;5012099;28;20033;-90
2023/01/30 10:55:14;;;;;;;11.65;2.90;;;8.00;99.90;;;;;;5009162;28;20057;-90
2023/01/30 10:57:55;;;;;;;14.18;2.42;;;7.90;99.90;;;;;;5012515;28;20410;-90
2023/01/30 11:00:42;;;;;;;8.90;1.88;;;8.00;99.90;;;;;;5011500;28;20049;-90
2023/01/30 11:03:26;;;;;;;8.20;1.67;;;8.10;99.90;;;;;;5013008;28;20629;-89
2023/01/30 11:06:26;;;;;;;14.80;2.92;;;8.10;99.90;;;;;;5010994;28;20052;-90
2023/01/30 11:08:56;;;;;;;16.45;2.42;;;8.10;99.90;;;;;;4986931;28;20049;-90
2023/01/30 11:11:27;;;;;;;18.73;3.17;;;8.10;99.90;;;;;;4985190;28;20077;-90
2023/01/30 11:14:06;;;;;;;15.07;2.88;;;8.10;99.90;;;;;;5000933;28;20503;-90
2023/01/30 11:16:42;;;;;;;19.40;3.72;;;8.30;99.90;;;;;;4978309;28;20041;-89
2023/01/30 11:19:09;;;;;;;17.38;3.10;;;8.40;99.90;;;;;;4973595;28;20144;-90
2023/01/30 11:21:35;;;;;;;20.27;3.75;;;8.50;99.90;;;;;;4976050;28;20511;-90
2023/01/30 11:24:13;;;;;;;10.73;2.55;;;8.50;99.90;;;;;;4992355;28;20181;-89
2023/01/30 11:26:39;;;;;;;17.35;4.22;;;8.50;99.90;;;;;;4970333;28;20041;-90
2023/01/30 11:29:22;;;;;;;20.67;3.42;;;8.50;99.90;;;;;;4976583;28;20040;-90
2023/01/30 11:31:52;;;;;;;16.25;3.78;;;8.50;99.90;;;;;;5007593;28;20050;-89
2023/01/30 11:34:20;;;;;;;17.15;3.35;;;8.40;99.90;;;;;;4975967;28;20045;-89
2023/01/30 11:36:46;;;;;;;17.95;3.42;;;8.30;99.90;;;;;;5009609;28;20034;-89
2023/01/30 11:39:12;;;;;;;17.35;2.80;;;8.40;99.90;;;;;;4975798;28;20077;-89
2023/01/30 11:41:43;;;;;;;18.40;3.72;;;8.50;99.90;;;;;;4992373;28;20135;-90
2023/01/30 11:44:10;;;;;;;17.77;2.67;;;8.70;99.90;;;;;;4994208;28;20490;-90
2023/01/30 11:46:39;;;;;;;14.13;2.55;;;8.90;99.90;;;;;;5052016;28;20051;-89
2023/01/30 11:49:14;;;;;;;16.85;3.15;;;9.20;99.90;;;;;;5074226;28;20043;-89
2023/01/30 11:51:43;;;;;;;20.75;2.80;;;9.50;99.90;;;;;;5091377;28;20404;-89
2023/01/30 11:54:19;;;;;;;17.10;3.97;;;9.70;99.90;;;;;;5089120;28;20071;-89
2023/01/30 11:56:53;;;;;;;17.98;3.00;;;9.80;99.90;;;;;;5068844;28;20515;-90
2023/01/30 11:59:38;;;;;;;17.45;2.78;;;9.90;99.90;;;;;;5090809;28;20083;-90
2023/01/30 12:02:03;;;;;;;17.48;3.80;;;9.90;99.90;;;;;;5072120;28;20123;-90
2023/01/30 12:04:29;;;;;;;17.83;3.15;;;9.90;99.90;;;;;;5072685;28;20118;-90
2023/01/30 12:07:15;;;;;;;21.17;3.85;;;9.80;99.90;;;;;;5066542;28;20036;-90
2023/01/30 12:09:41;;;;;;;18.33;2.53;;;9.60;99.90;;;;;;5032900;28;20047;-90
2023/01/30 12:12:26;;;;;;;18.02;3.08;;;9.50;99.90;;;;;;5075035;28;20032;-89
2023/01/30 12:14:58;;;;;;;18.25;3.00;;;9.30;99.90;;;;;;5089278;28;20177;-90
2023/01/30 12:17:33;;;;;;;13.55;2.70;;;9.20;99.90;;;;;;5068746;28;20040;-90
2023/01/30 12:20:21;;;;;;;16.55;3.28;;;9.10;99.90;;;;;;5051405;28;20067;-89
2023/01/30 12:23:08;;;;;;;12.63;2.53;;;8.90;99.90;;;;;;5053955;28;20078;-90
2023/01/30 12:25:59;;;;;;;13.05;2.20;;;8.80;99.90;;;;;;5086380;28;20044;-90
2023/01/30 12:29:00;;;;;;;13.40;2.28;;;8.80;99.90;;;;;;5054424;28;20040;-91
2023/01/30 12:31:38;;;;;;;11.82;1.70;;;8.70;99.90;;;;;;5062939;28;20059;-89
2023/01/30 12:34:04;;;;;;;14.23;2.00;;;8.60;99.90;;;;;;5072391;28;20559;-91
2023/01/30 12:36:58;;;;;;;8.55;1.42;;;8.80;99.90;;;;;;5062324;28;20036;-91
2023/01/30 12:40:02;;;;;;;6.90;1.15;;;9.90;99.90;;;;;;5032651;28;20041;-90
2023/01/30 12:42:51;;;;;;;8.73;1.40;;;11.20;95.60;;;;;;5040413;28;20040;-90
2023/01/30 12:45:26;;;;;;;12.38;2.33;;;11.70;92.60;;;;;;5070757;28;20069;-90
2023/01/30 12:48:43;;;;;;;10.27;2.20;;;11.40;91.90;;;;;;5085941;28;20048;-90
2023/01/30 12:51:12;;;;;;;12.35;2.53;;;11.10;92.00;;;;;;4994029;28;20045;-90
2023/01/30 12:54:21;;;;;;;11.13;2.28;;;10.80;94.50;;;;;;5068236;28;20091;-90
2023/01/30 12:57:04;;;;;;;9.43;1.75;;;10.60;93.50;;;;;;5074655;28;20076;-90
2023/01/30 12:59:35;;;;;;;;;;;10.50;98.00;;;;;;5075358;28;20587;-91
2023/01/30 13:02:32;;;;;;;14.90;3.35;;;10.30;94.30;;;;;;5085260;28;19923;-90
2023/01/30 13:05:20;;;;;;;9.38;2.03;;;10.50;97.10;;;;;;5075800;28;20478;-90
2023/01/30 13:07:56;;;;;;;13.13;2.15;;;10.70;97.20;;;;;;5070995;28;20040;-91
2023/01/30 13:10:43;;;;;;;16.88;3.13;;;10.80;98.90;;;;;;5075314;28;20047;-91
2023/01/30 13:13:27;;;;;;;12.95;2.08;;;11.20;99.70;;;;;;5086665;28;20082;-90
2023/01/30 13:16:05;;;;;;;20.33;2.85;;;12.20;95.90;;;;;;5076111;28;20446;-90
2023/01/30 13:18:39;;;;;;;15.75;3.05;;;12.90;96.30;;;;;;5075569;28;20050;-90